sensor_id;sensor_type;location;lat;lon;timestamp;temperature;humidity
51825;DHT22;37879;52.986;6.282;2023-03-13T00:00:46;8.40;99.90
51825;DHT22;37879;52.986;6.282;2023-03-13T00:03:12;8.30;99.90
51825;DHT22;37879;52.986;6.282;2023-03-13T00:05:37;8.30;99.90
51825;DHT22;37879;52.986;6.282;2023-03-13T00:08:03;8.60;99.90
51825;DHT22;37879;52.986;6.282;2023-03-13T00:10:28;8.30;99.90
51825;DHT22;37879;52.986;6.282;2023-03-13T00:12:54;6.90;99.90
51825;DHT22;37879;52.986;6.282;2023-03-13T00:15:20;8.50;99.90
51825;DHT22;37879;52.986;6.282;2023-03-13T00:17:45;8.30;99.90
51825;DHT22;37879;52.986;6.282;2023-03-13T00:20:11;8.30;99.90
51825;DHT22;37879;52.986;6.282;2023-03-13T00:22:37;8.30;99.90
51825;DHT22;37879;52.986;6.282;2023-03-13T00:25:02;8.70;99.90
51825;DHT22;37879;52.986;6.282;2023-03-13T00:27:32;8.30;99.90
51825;DHT22;37879;52.986;6.282;2023-03-13T00:29:59;8.30;99.90
51825;DHT22;37879;52.986;6.282;2023-03-13T00:32:24;8.30;99.90
51825;DHT22;37879;52.986;6.282;2023-03-13T00:34:50;8.60;99.90
51825;DHT22;37879;52.986;6.282;2023-03-13T00:37:16;8.30;99.90
51825;DHT22;37879;52.986;6.282;2023-03-13T00:39:41;8.30;99.90
51825;DHT22;37879;52.986;6.282;2023-03-13T00:42:07;8.30;99.90
51825;DHT22;37879;52.986;6.282;2023-03-13T00:44:32;8.50;99.90
51825;DHT22;37879;52.986;6.282;2023-03-13T00:46:58;9.00;99.90
51825;DHT22;37879;52.986;6.282;2023-03-13T00:49:24;8.20;99.90
51825;DHT22;37879;52.986;6.282;2023-03-13T00:51:49;8.30;99.90
51825;DHT22;37879;52.986;6.282;2023-03-13T00:54:15;9.20;99.90
51825;DHT22;37879;52.986;6.282;2023-03-13T00:56:41;9.20;99.90
51825;DHT22;37879;52.986;6.282;2023-03-13T00:59:06;8.60;99.90
51825;DHT22;37879;52.986;6.282;2023-03-13T01:01:34;8.30;99.90
51825;DHT22;37879;52.986;6.282;2023-03-13T01:04:06;8.30;99.90
51825;DHT22;37879;52.986;6.282;2023-03-13T01:06:33;8.30;99.90
51825;DHT22;37879;52.986;6.282;2023-03-13T01:09:00;8.20;99.90
51825;DHT22;37879;52.986;6.282;2023-03-13T01:11:31;8.20;99.90
51825;DHT22;37879;52.986;6.282;2023-03-13T01:13:59;8.20;99.90
51825;DHT22;37879;52.986;6.282;2023-03-13T01:16:28;8.20;99.90
51825;DHT22;37879;52.986;6.282;2023-03-13T01:18:55;8.10;99.90
51825;DHT22;37879;52.986;6.282;2023-03-13T01:21:23;8.10;99.90
51825;DHT22;37879;52.986;6.282;2023-03-13T01:23:49;8.10;99.90
51825;DHT22;37879;52.986;6.282;2023-03-13T01:26:16;8.10;99.90
51825;DHT22;37879;52.986;6.282;2023-03-13T01:28:42;8.80;99.90
51825;DHT22;37879;52.986;6.282;2023-03-13T01:33:36;8.10;99.90
51825;DHT22;37879;52.986;6.282;2023-03-13T01:36:03;8.10;99.90
51825;DHT22;37879;52.986;6.282;2023-03-13T01:38:28;8.20;99.90
51825;DHT22;37879;52.986;6.282;2023-03-13T01:40:54;8.30;99.90
51825;DHT22;37879;52.986;6.282;2023-03-13T01:43:28;8.30;99.90
51825;DHT22;37879;52.986;6.282;2023-03-13T01:51:39;8.40;99.90
51825;DHT22;37879;52.986;6.282;2023-03-13T01:54:22;8.40;99.90
51825;DHT22;37879;52.986;6.282;2023-03-13T01:56:56;8.40;99.90
51825;DHT22;37879;52.986;6.282;2023-03-13T01:59:27;8.50;99.90
51825;DHT22;37879;52.986;6.282;2023-03-13T02:01:56;8.50;99.90
51825;DHT22;37879;52.986;6.282;2023-03-13T02:04:23;8.50;99.90
51825;DHT22;37879;52.986;6.282;2023-03-13T02:06:53;8.50;99.90
51825;DHT22;37879;52.986;6.282;2023-03-13T02:09:22;9.10;99.90
51825;DHT22;37879;52.986;6.282;2023-03-13T02:12:02;8.50;99.90
51825;DHT22;37879;52.986;6.282;2023-03-13T02:14:32;8.50;99.90
51825;DHT22;37879;52.986;6.282;2023-03-13T02:16:59;8.50;99.90
51825;DHT22;37879;52.986;6.282;2023-03-13T02:19:47;8.50;99.90
51825;DHT22;37879;52.986;6.282;2023-03-13T02:27:40;8.40;99.90
51825;DHT22;37879;52.986;6.282;2023-03-13T02:30:10;9.00;99.90
51825;DHT22;37879;52.986;6.282;2023-03-13T02:32:36;8.40;99.90
51825;DHT22;37879;52.986;6.282;2023-03-13T02:35:08;8.50;99.90
51825;DHT22;37879;52.986;6.282;2023-03-13T02:37:35;8.50;99.90
51825;DHT22;37879;52.986;6.282;2023-03-13T02:40:05;8.50;99.90
51825;DHT22;37879;52.986;6.282;2023-03-13T02:42:36;8.50;99.90
51825;DHT22;37879;52.986;6.282;2023-03-13T02:45:03;8.50;99.90
51825;DHT22;37879;52.986;6.282;2023-03-13T02:47:28;8.50;99.90
51825;DHT22;37879;52.986;6.282;2023-03-13T02:49:54;8.50;99.90
51825;DHT22;37879;52.986;6.282;2023-03-13T02:52:26;8.50;99.90
51825;DHT22;37879;52.986;6.282;2023-03-13T02:55:00;8.80;99.90
51825;DHT22;37879;52.986;6.282;2023-03-13T02:57:27;8.50;99.90
51825;DHT22;37879;52.986;6.282;2023-03-13T02:59:54;8.50;99.90
51825;DHT22;37879;52.986;6.282;2023-03-13T03:02:19;8.60;99.90
51825;DHT22;37879;52.986;6.282;2023-03-13T03:04:45;9.40;99.90
51825;DHT22;37879;52.986;6.282;2023-03-13T03:07:11;8.60;99.90
51825;DHT22;37879;52.986;6.282;2023-03-13T03:09:36;8.60;99.90
51825;DHT22;37879;52.986;6.282;2023-03-13T03:12:02;8.70;99.90
51825;DHT22;37879;52.986;6.282;2023-03-13T03:14:28;8.70;99.90
51825;DHT22;37879;52.986;6.282;2023-03-13T03:16:54;8.70;99.90
51825;DHT22;37879;52.986;6.282;2023-03-13T03:19:19;8.70;99.90
51825;DHT22;37879;52.986;6.282;2023-03-13T03:21:45;8.80;99.90
51825;DHT22;37879;52.986;6.282;2023-03-13T03:24:11;8.80;99.90
51825;DHT22;37879;52.986;6.282;2023-03-13T03:26:36;8.80;99.90
51825;DHT22;37879;52.986;6.282;2023-03-13T03:29:02;9.40;99.90
51825;DHT22;37879;52.986;6.282;2023-03-13T03:31:29;8.90;99.90
51825;DHT22;37879;52.986;6.282;2023-03-13T03:33:56;9.00;99.90
51825;DHT22;37879;52.986;6.282;2023-03-13T03:36:22;9.00;99.90
51825;DHT22;37879;52.986;6.282;2023-03-13T03:38:49;9.00;99.90
51825;DHT22;37879;52.986;6.282;2023-03-13T03:41:15;9.10;99.90
51825;DHT22;37879;52.986;6.282;2023-03-13T03:43:41;8.00;99.90
51825;DHT22;37879;52.986;6.282;2023-03-13T03:46:07;9.10;99.90
51825;DHT22;37879;52.986;6.282;2023-03-13T03:48:33;9.20;99.90
51825;DHT22;37879;52.986;6.282;2023-03-13T03:50:59;9.80;99.90
51825;DHT22;37879;52.986;6.282;2023-03-13T03:53:25;9.40;99.90
51825;DHT22;37879;52.986;6.282;2023-03-13T03:55:51;9.70;99.90
51825;DHT22;37879;52.986;6.282;2023-03-13T03:58:16;9.30;99.90
51825;DHT22;37879;52.986;6.282;2023-03-13T04:00:44;9.40;99.90
51825;DHT22;37879;52.986;6.282;2023-03-13T04:03:09;9.90;99.90
51825;DHT22;37879;52.986;6.282;2023-03-13T04:05:35;9.40;99.90
51825;DHT22;37879;52.986;6.282;2023-03-13T04:08:01;9.80;99.90
51825;DHT22;37879;52.986;6.282;2023-03-13T04:10:26;9.50;99.90
51825;DHT22;37879;52.986;6.282;2023-03-13T04:12:52;9.70;99.90
51825;DHT22;37879;52.986;6.282;2023-03-13T04:15:18;9.40;99.90
51825;DHT22;37879;52.986;6.282;2023-03-13T04:17:43;9.70;99.90
51825;DHT22;37879;52.986;6.282;2023-03-13T04:20:10;9.60;99.90
51825;DHT22;37879;52.986;6.282;2023-03-13T04:22:38;9.70;99.90
51825;DHT22;37879;52.986;6.282;2023-03-13T04:25:03;9.90;99.90
51825;DHT22;37879;52.986;6.282;2023-03-13T04:27:29;9.80;99.90
51825;DHT22;37879;52.986;6.282;2023-03-13T04:29:55;9.80;99.90
51825;DHT22;37879;52.986;6.282;2023-03-13T04:32:20;9.90;99.90
51825;DHT22;37879;52.986;6.282;2023-03-13T04:34:46;9.90;99.90
51825;DHT22;37879;52.986;6.282;2023-03-13T04:37:12;10.00;99.90
51825;DHT22;37879;52.986;6.282;2023-03-13T04:39:37;10.10;99.90
51825;DHT22;37879;52.986;6.282;2023-03-13T04:42:03;10.10;99.90
51825;DHT22;37879;52.986;6.282;2023-03-13T04:44:28;10.10;99.90
51825;DHT22;37879;52.986;6.282;2023-03-13T04:46:54;10.20;99.90
51825;DHT22;37879;52.986;6.282;2023-03-13T04:49:20;10.50;99.90
51825;DHT22;37879;52.986;6.282;2023-03-13T04:51:45;10.40;99.90
51825;DHT22;37879;52.986;6.282;2023-03-13T04:54:11;10.30;99.90
51825;DHT22;37879;52.986;6.282;2023-03-13T04:56:37;10.40;99.90
51825;DHT22;37879;52.986;6.282;2023-03-13T04:59:03;10.40;99.90
51825;DHT22;37879;52.986;6.282;2023-03-13T05:01:29;10.90;99.90
51825;DHT22;37879;52.986;6.282;2023-03-13T05:03:54;10.50;99.90
51825;DHT22;37879;52.986;6.282;2023-03-13T05:06:20;10.60;99.90
51825;DHT22;37879;52.986;6.282;2023-03-13T05:08:46;10.60;99.90
51825;DHT22;37879;52.986;6.282;2023-03-13T05:11:11;11.20;99.90
51825;DHT22;37879;52.986;6.282;2023-03-13T05:13:37;10.00;99.90
51825;DHT22;37879;52.986;6.282;2023-03-13T05:16:03;10.90;99.90
51825;DHT22;37879;52.986;6.282;2023-03-13T05:18:29;10.80;99.90
51825;DHT22;37879;52.986;6.282;2023-03-13T05:20:54;11.40;99.90
51825;DHT22;37879;52.986;6.282;2023-03-13T05:23:20;11.20;99.90
51825;DHT22;37879;52.986;6.282;2023-03-13T05:25:46;11.20;99.90
51825;DHT22;37879;52.986;6.282;2023-03-13T05:28:11;10.90;99.90
51825;DHT22;37879;52.986;6.282;2023-03-13T05:30:37;11.00;99.90
51825;DHT22;37879;52.986;6.282;2023-03-13T05:33:03;11.00;99.90
51825;DHT22;37879;52.986;6.282;2023-03-13T05:35:28;11.50;99.90
51825;DHT22;37879;52.986;6.282;2023-03-13T05:37:54;11.00;99.90
51825;DHT22;37879;52.986;6.282;2023-03-13T05:40:20;11.10;99.90
51825;DHT22;37879;52.986;6.282;2023-03-13T05:42:45;11.10;99.90
51825;DHT22;37879;52.986;6.282;2023-03-13T05:45:11;11.10;99.90
51825;DHT22;37879;52.986;6.282;2023-03-13T05:47:37;11.10;99.90
51825;DHT22;37879;52.986;6.282;2023-03-13T05:50:04;11.50;99.90
51825;DHT22;37879;52.986;6.282;2023-03-13T05:52:30;11.10;99.90
51825;DHT22;37879;52.986;6.282;2023-03-13T05:54:56;11.10;99.90
51825;DHT22;37879;52.986;6.282;2023-03-13T05:57:21;11.10;99.90
51825;DHT22;37879;52.986;6.282;2023-03-13T05:59:47;11.10;99.90
51825;DHT22;37879;52.986;6.282;2023-03-13T06:02:13;11.10;99.90
51825;DHT22;37879;52.986;6.282;2023-03-13T06:04:38;11.60;99.90
51825;DHT22;37879;52.986;6.282;2023-03-13T06:07:04;11.10;99.90
51825;DHT22;37879;52.986;6.282;2023-03-13T06:09:30;11.10;99.90
51825;DHT22;37879;52.986;6.282;2023-03-13T06:11:55;11.10;99.90
51825;DHT22;37879;52.986;6.282;2023-03-13T06:14:21;11.70;99.90
51825;DHT22;37879;52.986;6.282;2023-03-13T06:16:47;11.20;99.90
51825;DHT22;37879;52.986;6.282;2023-03-13T06:19:12;11.20;99.90
51825;DHT22;37879;52.986;6.282;2023-03-13T06:21:38;11.20;99.90
51825;DHT22;37879;52.986;6.282;2023-03-13T06:24:04;11.30;99.90
51825;DHT22;37879;52.986;6.282;2023-03-13T06:26:30;11.30;99.90
51825;DHT22;37879;52.986;6.282;2023-03-13T06:28:55;11.30;99.90
51825;DHT22;37879;52.986;6.282;2023-03-13T06:31:21;11.30;99.90
51825;DHT22;37879;52.986;6.282;2023-03-13T06:33:47;11.70;99.90
51825;DHT22;37879;52.986;6.282;2023-03-13T06:36:13;11.40;99.90
51825;DHT22;37879;52.986;6.282;2023-03-13T06:38:38;11.40;99.90
51825;DHT22;37879;52.986;6.282;2023-03-13T06:41:06;11.40;99.90
51825;DHT22;37879;52.986;6.282;2023-03-13T06:43:31;11.40;99.90
51825;DHT22;37879;52.986;6.282;2023-03-13T06:46:02;11.30;99.90
51825;DHT22;37879;52.986;6.282;2023-03-13T06:48:28;11.30;99.90
51825;DHT22;37879;52.986;6.282;2023-03-13T06:50:54;11.40;99.90
51825;DHT22;37879;52.986;6.282;2023-03-13T06:53:21;11.30;99.90
51825;DHT22;37879;52.986;6.282;2023-03-13T06:55:47;11.80;99.90
51825;DHT22;37879;52.986;6.282;2023-03-13T06:58:16;11.60;99.90
51825;DHT22;37879;52.986;6.282;2023-03-13T07:00:42;11.40;99.90
51825;DHT22;37879;52.986;6.282;2023-03-13T07:03:11;11.40;99.90
51825;DHT22;37879;52.986;6.282;2023-03-13T07:05:38;12.00;99.90
51825;DHT22;37879;52.986;6.282;2023-03-13T07:08:04;12.30;99.90
51825;DHT22;37879;52.986;6.282;2023-03-13T07:10:30;11.40;99.90
51825;DHT22;37879;52.986;6.282;2023-03-13T07:12:56;11.40;99.90
51825;DHT22;37879;52.986;6.282;2023-03-13T07:15:22;11.40;99.90
51825;DHT22;37879;52.986;6.282;2023-03-13T07:17:48;11.40;99.90
51825;DHT22;37879;52.986;6.282;2023-03-13T07:20:13;11.40;99.90
51825;DHT22;37879;52.986;6.282;2023-03-13T07:22:39;11.40;99.90
51825;DHT22;37879;52.986;6.282;2023-03-13T07:25:05;11.40;99.90
51825;DHT22;37879;52.986;6.282;2023-03-13T07:27:31;11.40;99.90
51825;DHT22;37879;52.986;6.282;2023-03-13T07:29:57;11.20;99.90
51825;DHT22;37879;52.986;6.282;2023-03-13T07:32:23;11.40;99.90
51825;DHT22;37879;52.986;6.282;2023-03-13T07:34:48;11.50;99.90
51825;DHT22;37879;52.986;6.282;2023-03-13T07:37:15;11.50;99.90
51825;DHT22;37879;52.986;6.282;2023-03-13T07:39:42;11.40;99.90
51825;DHT22;37879;52.986;6.282;2023-03-13T07:42:10;11.50;99.90
51825;DHT22;37879;52.986;6.282;2023-03-13T07:44:36;11.40;99.90
51825;DHT22;37879;52.986;6.282;2023-03-13T07:47:02;11.40;99.90
51825;DHT22;37879;52.986;6.282;2023-03-13T07:49:27;11.40;99.90
51825;DHT22;37879;52.986;6.282;2023-03-13T07:51:53;11.40;99.90
51825;DHT22;37879;52.986;6.282;2023-03-13T07:54:19;11.40;99.90
51825;DHT22;37879;52.986;6.282;2023-03-13T07:56:44;11.40;99.90
51825;DHT22;37879;52.986;6.282;2023-03-13T07:59:10;11.40;99.90
51825;DHT22;37879;52.986;6.282;2023-03-13T08:01:36;11.40;99.90
51825;DHT22;37879;52.986;6.282;2023-03-13T08:04:01;11.40;99.90
51825;DHT22;37879;52.986;6.282;2023-03-13T08:06:30;11.40;99.90
51825;DHT22;37879;52.986;6.282;2023-03-13T08:08:57;11.40;99.90
51825;DHT22;37879;52.986;6.282;2023-03-13T08:11:24;11.40;99.90
51825;DHT22;37879;52.986;6.282;2023-03-13T08:13:54;11.40;99.90
51825;DHT22;37879;52.986;6.282;2023-03-13T08:16:22;11.40;99.90
51825;DHT22;37879;52.986;6.282;2023-03-13T08:18:51;11.50;99.90
51825;DHT22;37879;52.986;6.282;2023-03-13T08:21:22;12.10;99.90
51825;DHT22;37879;52.986;6.282;2023-03-13T08:23:52;11.50;99.90
51825;DHT22;37879;52.986;6.282;2023-03-13T08:26:20;11.60;99.90
51825;DHT22;37879;52.986;6.282;2023-03-13T08:28:50;11.70;99.90
51825;DHT22;37879;52.986;6.282;2023-03-13T08:31:18;11.90;99.90
51825;DHT22;37879;52.986;6.282;2023-03-13T08:33:45;12.20;99.90
51825;DHT22;37879;52.986;6.282;2023-03-13T08:38:41;11.70;99.90
51825;DHT22;37879;52.986;6.282;2023-03-13T08:41:09;12.50;99.90
51825;DHT22;37879;52.986;6.282;2023-03-13T08:43:36;12.10;99.90
51825;DHT22;37879;52.986;6.282;2023-03-13T08:46:02;12.10;99.90
51825;DHT22;37879;52.986;6.282;2023-03-13T08:48:28;12.20;99.90
51825;DHT22;37879;52.986;6.282;2023-03-13T08:51:04;13.10;99.90
51825;DHT22;37879;52.986;6.282;2023-03-13T08:53:31;12.20;99.90
51825;DHT22;37879;52.986;6.282;2023-03-13T08:55:57;12.20;99.90
51825;DHT22;37879;52.986;6.282;2023-03-13T08:58:23;12.40;99.90
51825;DHT22;37879;52.986;6.282;2023-03-13T09:00:49;12.30;99.90
51825;DHT22;37879;52.986;6.282;2023-03-13T09:03:15;12.30;99.90
51825;DHT22;37879;52.986;6.282;2023-03-13T09:05:42;12.30;99.90
51825;DHT22;37879;52.986;6.282;2023-03-13T09:08:08;12.30;99.90
51825;DHT22;37879;52.986;6.282;2023-03-13T09:10:34;12.30;99.90
51825;DHT22;37879;52.986;6.282;2023-03-13T09:13:01;12.30;99.90
51825;DHT22;37879;52.986;6.282;2023-03-13T09:15:26;12.50;99.90
51825;DHT22;37879;52.986;6.282;2023-03-13T09:17:52;12.30;99.90
51825;DHT22;37879;52.986;6.282;2023-03-13T09:20:18;12.30;99.90
51825;DHT22;37879;52.986;6.282;2023-03-13T09:22:44;12.40;99.90
51825;DHT22;37879;52.986;6.282;2023-03-13T09:25:10;12.20;99.90
51825;DHT22;37879;52.986;6.282;2023-03-13T09:27:36;12.20;99.90
51825;DHT22;37879;52.986;6.282;2023-03-13T09:30:02;12.20;99.90
51825;DHT22;37879;52.986;6.282;2023-03-13T09:32:28;12.00;99.90
51825;DHT22;37879;52.986;6.282;2023-03-13T09:34:53;12.00;99.90
51825;DHT22;37879;52.986;6.282;2023-03-13T09:37:20;12.00;99.90
51825;DHT22;37879;52.986;6.282;2023-03-13T09:39:47;12.30;99.90
51825;DHT22;37879;52.986;6.282;2023-03-13T09:42:17;12.20;99.90
51825;DHT22;37879;52.986;6.282;2023-03-13T09:44:55;11.90;99.90
51825;DHT22;37879;52.986;6.282;2023-03-13T09:50:10;12.20;99.90
51825;DHT22;37879;52.986;6.282;2023-03-13T09:52:38;12.30;99.90
51825;DHT22;37879;52.986;6.282;2023-03-13T09:55:29;12.50;99.90
51825;DHT22;37879;52.986;6.282;2023-03-13T09:58:02;12.60;99.90
51825;DHT22;37879;52.986;6.282;2023-03-13T10:00:39;12.60;99.90
51825;DHT22;37879;52.986;6.282;2023-03-13T10:03:28;12.60;99.90
51825;DHT22;37879;52.986;6.282;2023-03-13T10:05:58;12.70;99.90
51825;DHT22;37879;52.986;6.282;2023-03-13T10:08:26;12.80;99.90
51825;DHT22;37879;52.986;6.282;2023-03-13T10:18:52;12.90;99.90
51825;DHT22;37879;52.986;6.282;2023-03-13T10:21:21;12.90;99.90
51825;DHT22;37879;52.986;6.282;2023-03-13T10:24:40;13.00;99.90
51825;DHT22;37879;52.986;6.282;2023-03-13T10:26:46;13.00;99.90
51825;DHT22;37879;52.986;6.282;2023-03-13T10:31:57;13.10;99.90
51825;DHT22;37879;52.986;6.282;2023-03-13T10:34:27;13.20;99.90
51825;DHT22;37879;52.986;6.282;2023-03-13T10:36:59;13.20;99.90
51825;DHT22;37879;52.986;6.282;2023-03-13T10:39:27;13.20;99.90
51825;DHT22;37879;52.986;6.282;2023-03-13T10:42:07;13.20;99.90
51825;DHT22;37879;52.986;6.282;2023-03-13T10:44:34;13.30;99.90
51825;DHT22;37879;52.986;6.282;2023-03-13T10:47:01;13.90;99.90
51825;DHT22;37879;52.986;6.282;2023-03-13T10:49:29;13.60;99.90
51825;DHT22;37879;52.986;6.282;2023-03-13T10:52:01;13.60;99.90
51825;DHT22;37879;52.986;6.282;2023-03-13T10:54:34;13.70;99.90
51825;DHT22;37879;52.986;6.282;2023-03-13T10:57:28;13.80;99.90
51825;DHT22;37879;52.986;6.282;2023-03-13T10:59:55;13.80;99.90
51825;DHT22;37879;52.986;6.282;2023-03-13T11:02:35;13.80;99.90
51825;DHT22;37879;52.986;6.282;2023-03-13T11:07:46;14.00;99.90
51825;DHT22;37879;52.986;6.282;2023-03-13T11:12:44;14.10;99.90
51825;DHT22;37879;52.986;6.282;2023-03-13T11:15:22;14.00;99.90
51825;DHT22;37879;52.986;6.282;2023-03-13T11:18:14;14.00;99.90
51825;DHT22;37879;52.986;6.282;2023-03-13T11:20:44;13.90;99.90
51825;DHT22;37879;52.986;6.282;2023-03-13T11:23:26;14.00;99.90
51825;DHT22;37879;52.986;6.282;2023-03-13T11:26:18;14.20;99.90
51825;DHT22;37879;52.986;6.282;2023-03-13T11:31:29;14.10;99.90
51825;DHT22;37879;52.986;6.282;2023-03-13T11:34:05;14.10;99.90
51825;DHT22;37879;52.986;6.282;2023-03-13T11:41:59;14.40;99.90
51825;DHT22;37879;52.986;6.282;2023-03-13T11:55:14;15.00;99.90
51825;DHT22;37879;52.986;6.282;2023-03-13T11:57:55;15.50;99.90
51825;DHT22;37879;52.986;6.282;2023-03-13T12:00:30;15.20;99.90
51825;DHT22;37879;52.986;6.282;2023-03-13T12:03:05;15.20;99.90
51825;DHT22;37879;52.986;6.282;2023-03-13T12:05:56;15.30;99.90
51825;DHT22;37879;52.986;6.282;2023-03-13T12:08:43;15.30;99.90
51825;DHT22;37879;52.986;6.282;2023-03-13T12:11:28;15.20;99.90
51825;DHT22;37879;52.986;6.282;2023-03-13T12:14:03;15.20;99.90
51825;DHT22;37879;52.986;6.282;2023-03-13T12:16:40;15.20;99.90
51825;DHT22;37879;52.986;6.282;2023-03-13T12:19:10;15.20;99.90
51825;DHT22;37879;52.986;6.282;2023-03-13T12:22:13;15.30;99.90
51825;DHT22;37879;52.986;6.282;2023-03-13T12:24:48;15.40;99.90
51825;DHT22;37879;52.986;6.282;2023-03-13T12:27:23;15.30;99.90
51825;DHT22;37879;52.986;6.282;2023-03-13T12:29:57;15.20;99.90
51825;DHT22;37879;52.986;6.282;2023-03-13T12:34:59;15.10;99.90
51825;DHT22;37879;52.986;6.282;2023-03-13T12:37:39;15.00;99.90
51825;DHT22;37879;52.986;6.282;2023-03-13T12:40:24;15.00;99.90
51825;DHT22;37879;52.986;6.282;2023-03-13T12:43:13;14.80;99.90
51825;DHT22;37879;52.986;6.282;2023-03-13T12:56:40;15.00;99.90
51825;DHT22;37879;52.986;6.282;2023-03-13T12:59:31;14.80;99.90
51825;DHT22;37879;52.986;6.282;2023-03-13T13:01:58;15.50;99.90
51825;DHT22;37879;52.986;6.282;2023-03-13T13:04:26;14.80;99.90
51825;DHT22;37879;52.986;6.282;2023-03-13T13:09:31;14.70;99.90
51825;DHT22;37879;52.986;6.282;2023-03-13T13:12:03;14.70;99.90
51825;DHT22;37879;52.986;6.282;2023-03-13T13:19:57;14.80;99.90
51825;DHT22;37879;52.986;6.282;2023-03-13T13:30:15;14.70;99.90
51825;DHT22;37879;52.986;6.282;2023-03-13T13:32:55;14.70;99.90
51825;DHT22;37879;52.986;6.282;2023-03-13T13:35:39;14.80;99.90
51825;DHT22;37879;52.986;6.282;2023-03-13T13:43:43;14.70;99.90
51825;DHT22;37879;52.986;6.282;2023-03-13T13:46:43;14.60;99.90
51825;DHT22;37879;52.986;6.282;2023-03-13T13:49:15;14.60;99.90
51825;DHT22;37879;52.986;6.282;2023-03-13T13:52:16;15.40;99.90
51825;DHT22;37879;52.986;6.282;2023-03-13T13:54:54;14.50;99.90
51825;DHT22;37879;52.986;6.282;2023-03-13T13:57:23;14.50;99.90
51825;DHT22;37879;52.986;6.282;2023-03-13T14:02:55;14.60;99.90
51825;DHT22;37879;52.986;6.282;2023-03-13T14:05:31;14.70;99.90
51825;DHT22;37879;52.986;6.282;2023-03-13T14:08:15;14.60;99.90
51825;DHT22;37879;52.986;6.282;2023-03-13T14:13:27;14.70;99.90
51825;DHT22;37879;52.986;6.282;2023-03-13T14:15:53;14.70;99.90
51825;DHT22;37879;52.986;6.282;2023-03-13T14:18:27;14.70;99.90
51825;DHT22;37879;52.986;6.282;2023-03-13T14:26:13;14.80;99.90
51825;DHT22;37879;52.986;6.282;2023-03-13T14:28:42;14.80;99.90
51825;DHT22;37879;52.986;6.282;2023-03-13T14:31:08;14.70;99.90
51825;DHT22;37879;52.986;6.282;2023-03-13T14:33:34;14.70;99.90
51825;DHT22;37879;52.986;6.282;2023-03-13T14:36:01;14.80;99.90
51825;DHT22;37879;52.986;6.282;2023-03-13T14:38:28;14.60;99.90
51825;DHT22;37879;52.986;6.282;2023-03-13T14:41:00;14.50;99.90
51825;DHT22;37879;52.986;6.282;2023-03-13T14:43:33;14.50;99.90
51825;DHT22;37879;52.986;6.282;2023-03-13T14:46:00;14.40;99.90
51825;DHT22;37879;52.986;6.282;2023-03-13T14:48:37;14.40;99.90
51825;DHT22;37879;52.986;6.282;2023-03-13T14:51:08;14.30;99.90
51825;DHT22;37879;52.986;6.282;2023-03-13T14:53:35;14.80;99.90
51825;DHT22;37879;52.986;6.282;2023-03-13T14:56:16;14.20;99.90
51825;DHT22;37879;52.986;6.282;2023-03-13T14:58:45;14.20;99.90
51825;DHT22;37879;52.986;6.282;2023-03-13T15:01:26;14.10;99.90
51825;DHT22;37879;52.986;6.282;2023-03-13T15:03:55;14.10;99.90
51825;DHT22;37879;52.986;6.282;2023-03-13T15:06:23;14.00;99.90
51825;DHT22;37879;52.986;6.282;2023-03-13T15:11:35;13.90;99.90
51825;DHT22;37879;52.986;6.282;2023-03-13T15:14:34;13.90;99.90
51825;DHT22;37879;52.986;6.282;2023-03-13T15:17:00;13.90;99.90
51825;DHT22;37879;52.986;6.282;2023-03-13T15:19:26;13.90;99.90
51825;DHT22;37879;52.986;6.282;2023-03-13T15:21:52;13.90;99.90
51825;DHT22;37879;52.986;6.282;2023-03-13T15:24:19;13.90;99.90
51825;DHT22;37879;52.986;6.282;2023-03-13T15:26:44;13.90;99.90
51825;DHT22;37879;52.986;6.282;2023-03-13T15:29:10;13.90;99.90
51825;DHT22;37879;52.986;6.282;2023-03-13T15:31:36;14.00;99.90
51825;DHT22;37879;52.986;6.282;2023-03-13T15:34:02;13.90;99.90
51825;DHT22;37879;52.986;6.282;2023-03-13T15:36:29;13.90;99.90
51825;DHT22;37879;52.986;6.282;2023-03-13T15:38:56;13.80;99.90
51825;DHT22;37879;52.986;6.282;2023-03-13T15:41:22;13.80;99.90
51825;DHT22;37879;52.986;6.282;2023-03-13T15:43:48;13.80;99.90
51825;DHT22;37879;52.986;6.282;2023-03-13T15:46:17;13.70;99.90
51825;DHT22;37879;52.986;6.282;2023-03-13T15:48:43;13.70;99.90
51825;DHT22;37879;52.986;6.282;2023-03-13T15:51:12;13.70;99.90
51825;DHT22;37879;52.986;6.282;2023-03-13T15:53:39;13.70;99.90
51825;DHT22;37879;52.986;6.282;2023-03-13T15:56:14;13.60;99.90
51825;DHT22;37879;52.986;6.282;2023-03-13T15:58:40;14.00;99.90
51825;DHT22;37879;52.986;6.282;2023-03-13T16:01:12;13.60;99.90
51825;DHT22;37879;52.986;6.282;2023-03-13T16:03:38;13.50;99.90
51825;DHT22;37879;52.986;6.282;2023-03-13T16:06:20;13.50;99.90
51825;DHT22;37879;52.986;6.282;2023-03-13T16:08:53;13.50;99.90
51825;DHT22;37879;52.986;6.282;2023-03-13T16:11:19;13.40;99.90
51825;DHT22;37879;52.986;6.282;2023-03-13T16:13:45;13.50;99.90
51825;DHT22;37879;52.986;6.282;2023-03-13T16:16:19;13.40;99.90
51825;DHT22;37879;52.986;6.282;2023-03-13T16:18:50;13.40;99.90
51825;DHT22;37879;52.986;6.282;2023-03-13T16:21:22;13.40;99.90
51825;DHT22;37879;52.986;6.282;2023-03-13T16:23:48;13.40;99.90
51825;DHT22;37879;52.986;6.282;2023-03-13T16:26:16;13.40;99.90
51825;DHT22;37879;52.986;6.282;2023-03-13T16:28:43;13.30;99.90
51825;DHT22;37879;52.986;6.282;2023-03-13T16:31:16;13.20;99.90
51825;DHT22;37879;52.986;6.282;2023-03-13T16:33:43;13.20;99.90
51825;DHT22;37879;52.986;6.282;2023-03-13T16:36:17;13.20;99.90
51825;DHT22;37879;52.986;6.282;2023-03-13T16:38:44;13.10;99.90
51825;DHT22;37879;52.986;6.282;2023-03-13T16:41:16;13.00;99.90
51825;DHT22;37879;52.986;6.282;2023-03-13T16:43:42;12.90;99.90
51825;DHT22;37879;52.986;6.282;2023-03-13T16:46:16;12.80;99.90
51825;DHT22;37879;52.986;6.282;2023-03-13T16:48:43;12.80;99.90
51825;DHT22;37879;52.986;6.282;2023-03-13T16:51:17;12.70;99.90
51825;DHT22;37879;52.986;6.282;2023-03-13T16:53:45;12.60;99.90
51825;DHT22;37879;52.986;6.282;2023-03-13T16:56:33;12.60;99.90
51825;DHT22;37879;52.986;6.282;2023-03-13T16:59:05;12.50;99.90
51825;DHT22;37879;52.986;6.282;2023-03-13T17:01:33;12.50;99.90
51825;DHT22;37879;52.986;6.282;2023-03-13T17:03:59;12.40;99.90
51825;DHT22;37879;52.986;6.282;2023-03-13T17:06:32;12.40;99.90
51825;DHT22;37879;52.986;6.282;2023-03-13T17:08:58;12.30;99.90
51825;DHT22;37879;52.986;6.282;2023-03-13T17:11:27;12.20;99.90
51825;DHT22;37879;52.986;6.282;2023-03-13T17:13:53;12.20;99.90
51825;DHT22;37879;52.986;6.282;2023-03-13T17:16:21;12.10;99.90
51825;DHT22;37879;52.986;6.282;2023-03-13T17:18:48;12.10;99.90
51825;DHT22;37879;52.986;6.282;2023-03-13T17:21:18;12.10;99.90
51825;DHT22;37879;52.986;6.282;2023-03-13T17:23:44;12.00;99.90
51825;DHT22;37879;52.986;6.282;2023-03-13T17:26:16;12.00;99.90
51825;DHT22;37879;52.986;6.282;2023-03-13T17:28:45;11.90;99.90